createdAt,value
2018-11-05T00:00:27.978Z,83.43
2018-11-05T00:02:56.967Z,72.80
2018-11-05T00:05:25.938Z,78.40
2018-11-05T00:07:54.958Z,75.07
2018-11-05T00:10:23.961Z,80.87
2018-11-05T00:12:52.949Z,82.83
2018-11-05T00:15:22.490Z,81.67
2018-11-05T00:17:52.602Z,78.50
2018-11-05T00:20:21.736Z,86.33
2018-11-05T00:22:51.290Z,85.97
2018-11-05T00:25:21.178Z,81.27
2018-11-05T00:27:50.278Z,94.73
2018-11-05T00:30:19.567Z,85.27
2018-11-05T00:32:49.545Z,104.57
2018-11-05T00:35:18.542Z,101.20
2018-11-05T00:37:47.994Z,97.23
2018-11-05T00:40:17.511Z,93.87
2018-11-05T00:42:46.803Z,93.83
2018-11-05T00:45:16.028Z,101.80
2018-11-05T00:47:45.320Z,104.13
2018-11-05T00:50:15.634Z,98.17
2018-11-05T00:52:45.561Z,97.67
2018-11-05T00:55:14.698Z,105.13
2018-11-05T00:57:43.766Z,90.73
2018-11-05T01:00:17.961Z,101.87
2018-11-05T01:02:46.943Z,98.60
2018-11-05T01:05:16.974Z,102.13
2018-11-05T01:07:46.746Z,106.17
2018-11-05T01:10:16.486Z,98.23
2018-11-05T01:12:45.747Z,108.90
2018-11-05T01:15:15.962Z,107.37
2018-11-05T01:17:44.978Z,113.37
2018-11-05T01:20:15.234Z,120.77
2018-11-05T01:22:44.210Z,98.77
2018-11-05T01:25:13.634Z,112.37
2018-11-05T01:27:42.975Z,103.20
2018-11-05T01:30:13.671Z,123.77
2018-11-05T01:32:43.546Z,114.73
2018-11-05T01:35:13.766Z,107.67
2018-11-05T01:37:42.762Z,121.03
2018-11-05T01:40:13.514Z,121.67
2018-11-05T01:42:42.629Z,128.13
2018-11-05T01:45:12.953Z,119.73
2018-11-05T01:47:42.778Z,110.53
2018-11-05T01:50:13.999Z,120.73
2018-11-05T01:52:43.935Z,128.27
2018-11-05T01:55:12.911Z,129.87
2018-11-05T01:57:42.321Z,127.43
2018-11-05T02:00:15.181Z,115.03
2018-11-05T02:02:44.933Z,124.23
2018-11-05T02:05:13.964Z,120.60
2018-11-05T02:07:44.349Z,123.03
2018-11-05T02:10:14.828Z,112.43
2018-11-05T02:12:43.875Z,130.27
2018-11-05T02:15:13.159Z,127.83
2018-11-05T02:17:43.417Z,118.97
2018-11-05T02:20:13.522Z,110.27
2018-11-05T02:22:42.511Z,114.30
2018-11-05T02:25:12.786Z,118.97
2018-11-05T02:27:42.452Z,126.00
2018-11-05T02:30:16.051Z,112.60
2018-11-05T02:32:45.962Z,129.37
2018-11-05T02:35:15.697Z,128.00
2018-11-05T02:37:45.340Z,137.00
2018-11-05T02:40:18.468Z,122.37
2018-11-05T02:42:47.843Z,126.60
2018-11-05T02:45:17.951Z,120.97
2018-11-05T02:47:46.882Z,133.43
2018-11-05T02:50:16.391Z,128.67
2018-11-05T02:52:48.010Z,148.37
2018-11-05T02:55:17.067Z,129.90
2018-11-05T02:57:46.059Z,138.00
2018-11-05T03:00:18.411Z,129.40
2018-11-05T03:02:47.409Z,131.77
2018-11-05T03:05:18.371Z,119.80
2018-11-05T03:07:48.058Z,122.77
2018-11-05T03:10:17.250Z,128.33
2018-11-05T03:12:47.160Z,116.87
2018-11-05T03:15:17.307Z,108.40
2018-11-05T03:17:46.311Z,129.03
2018-11-05T03:20:16.399Z,117.07
2018-11-05T03:22:45.716Z,114.90
2018-11-05T03:25:14.697Z,98.07
2018-11-05T03:27:43.685Z,106.30
2018-11-05T03:30:15.420Z,102.83
2018-11-05T03:32:44.413Z,107.97
2018-11-05T03:35:14.052Z,108.40
2018-11-05T03:37:44.210Z,106.80
2018-11-05T03:40:13.683Z,108.67
2018-11-05T03:42:43.175Z,113.93
2018-11-05T03:45:13.517Z,111.13
2018-11-05T03:47:42.531Z,96.13
2018-11-05T03:50:14.122Z,97.13
2018-11-05T03:52:43.963Z,111.47
2018-11-05T03:55:13.289Z,97.33
2018-11-05T03:57:42.252Z,105.33
2018-11-05T04:00:13.820Z,96.37
2018-11-05T04:02:43.074Z,109.13
2018-11-05T04:05:12.123Z,110.43
2018-11-05T04:07:41.215Z,96.43
2018-11-05T04:10:12.046Z,99.43
2018-11-05T04:12:41.024Z,101.80
2018-11-05T04:15:10.421Z,106.10
2018-11-05T04:17:39.325Z,113.60
2018-11-05T04:20:10.915Z,110.40
2018-11-05T04:22:40.096Z,105.93
2018-11-05T04:25:09.394Z,100.63
2018-11-05T04:27:38.668Z,101.97
2018-11-05T04:30:10.958Z,105.23
2018-11-05T04:32:40.162Z,114.10
2018-11-05T04:35:09.565Z,101.37
2018-11-05T04:37:39.411Z,99.13
2018-11-05T04:40:10.254Z,101.30
2018-11-05T04:42:39.314Z,90.47
2018-11-05T04:45:10.263Z,98.30
2018-11-05T04:47:39.275Z,98.93
2018-11-05T04:50:10.243Z,104.03
2018-11-05T04:52:39.918Z,96.67
2018-11-05T04:55:08.973Z,95.47
2018-11-05T04:57:38.500Z,95.87
2018-11-05T05:00:13.636Z,91.53
2018-11-05T05:02:43.350Z,99.50
2018-11-05T05:05:13.576Z,89.67
2018-11-05T05:07:42.759Z,91.53
2018-11-05T05:10:11.903Z,92.17
2018-11-05T05:12:42.071Z,87.87
2018-11-05T05:15:11.706Z,91.43
2018-11-05T05:17:41.119Z,87.27
2018-11-05T05:20:13.188Z,87.53
2018-11-05T05:22:42.587Z,85.17
2018-11-05T05:25:11.520Z,96.10
2018-11-05T05:27:40.692Z,93.87
2018-11-05T05:30:14.127Z,96.37
2018-11-05T05:32:43.582Z,86.37
2018-11-05T05:35:12.563Z,99.10
2018-11-05T05:37:42.390Z,89.43
2018-11-05T05:40:11.388Z,89.80
2018-11-05T05:42:41.006Z,92.03
2018-11-05T05:45:11.303Z,91.53
2018-11-05T05:47:40.686Z,89.13
2018-11-05T05:50:13.874Z,92.30
2018-11-05T05:52:43.912Z,96.57
2018-11-05T05:55:13.151Z,87.80
2018-11-05T05:57:42.302Z,84.60
2018-11-05T06:00:13.783Z,103.40
2018-11-05T06:02:43.219Z,98.47
2018-11-05T06:05:13.095Z,92.13
2018-11-05T06:07:42.485Z,92.53
2018-11-05T06:10:12.696Z,88.17
2018-11-05T06:12:41.697Z,101.07
2018-11-05T06:15:13.214Z,87.00
2018-11-05T06:17:42.219Z,89.10
2018-11-05T06:20:14.960Z,83.63
2018-11-05T06:22:44.968Z,99.70
2018-11-05T06:25:13.955Z,84.93
2018-11-05T06:27:43.142Z,85.67
2018-11-05T06:30:15.287Z,96.03
2018-11-05T06:32:45.634Z,90.13
2018-11-05T06:35:14.700Z,90.40
2018-11-05T06:37:43.643Z,89.87
2018-11-05T06:40:15.000Z,86.17
2018-11-05T06:42:44.458Z,89.13
2018-11-05T06:45:16.748Z,87.70
2018-11-05T06:47:46.358Z,87.60
2018-11-05T06:50:19.044Z,81.60
2018-11-05T06:52:48.074Z,85.97
2018-11-05T06:55:17.188Z,83.10
2018-11-05T06:57:46.587Z,83.47
2018-11-05T07:01:19.221Z,77.73
2018-11-05T07:03:48.274Z,75.90
2018-11-05T07:06:17.258Z,81.87
2018-11-05T07:08:46.246Z,90.27
2018-11-05T07:11:15.344Z,81.90
2018-11-05T07:13:44.371Z,83.13
2018-11-05T07:16:13.843Z,76.23
2018-11-05T07:18:43.006Z,76.57
2018-11-05T07:21:11.935Z,82.13
2018-11-05T07:23:41.226Z,73.00
2018-11-05T07:26:10.300Z,71.60
2018-11-05T07:28:40.613Z,71.60
2018-11-05T07:31:09.859Z,68.17
2018-11-05T07:33:39.191Z,69.63
2018-11-05T07:36:08.127Z,74.07
2018-11-05T07:38:38.360Z,70.93
2018-11-05T07:41:07.538Z,68.27
2018-11-05T07:43:37.694Z,70.87
2018-11-05T07:46:06.930Z,77.10
2018-11-05T07:48:36.412Z,68.10
2018-11-05T07:51:05.402Z,73.27
2018-11-05T07:53:34.508Z,81.60
2018-11-05T07:56:04.957Z,65.33
2018-11-05T07:58:34.810Z,68.40
2018-11-05T08:01:04.111Z,71.50
2018-11-05T08:03:33.522Z,77.27
2018-11-05T08:06:02.531Z,68.57
2018-11-05T08:08:31.567Z,71.83
2018-11-05T08:11:00.613Z,68.67
2018-11-05T08:13:29.927Z,63.03
2018-11-05T08:15:58.898Z,72.67
2018-11-05T08:18:28.191Z,69.63
2018-11-05T08:20:57.211Z,68.60
2018-11-05T08:23:26.494Z,64.53
2018-11-05T08:25:55.469Z,71.10
2018-11-05T08:28:24.535Z,69.57
2018-11-05T08:30:53.543Z,66.37
2018-11-05T08:33:22.562Z,80.57
2018-11-05T08:35:51.538Z,65.13
2018-11-05T08:38:20.524Z,71.00
2018-11-05T08:40:49.506Z,70.53
2018-11-05T08:43:18.575Z,64.87
2018-11-05T08:45:47.552Z,64.00
2018-11-05T08:48:16.515Z,63.73
2018-11-05T08:50:45.625Z,64.40
2018-11-05T08:53:14.586Z,61.83
2018-11-05T08:55:43.626Z,69.93
2018-11-05T08:58:13.143Z,63.53
2018-11-05T09:00:48.056Z,67.00
2018-11-05T09:03:17.054Z,64.80
2018-11-05T09:05:46.038Z,61.30
2018-11-05T09:08:15.268Z,61.97
2018-11-05T09:10:44.787Z,70.20
2018-11-05T09:13:13.340Z,71.90
2018-11-05T09:15:42.327Z,68.50
2018-11-05T09:18:13.450Z,69.27
2018-11-05T09:20:42.503Z,63.60
2018-11-05T09:23:11.448Z,71.30
2018-11-05T09:25:40.440Z,65.10
2018-11-05T09:28:09.448Z,66.67
2018-11-05T09:30:38.448Z,62.87
2018-11-05T09:33:07.435Z,64.43
2018-11-05T09:35:36.434Z,61.80
2018-11-05T09:38:06.167Z,67.37
2018-11-05T09:40:35.295Z,57.07
2018-11-05T09:43:04.354Z,62.67
2018-11-05T09:45:33.432Z,66.30
2018-11-05T09:48:02.431Z,65.07
2018-11-05T09:50:31.788Z,67.50
2018-11-05T09:53:01.867Z,67.57
2018-11-05T09:55:30.915Z,72.53
2018-11-05T09:58:00.015Z,68.73
2018-11-05T10:00:29.028Z,65.63
2018-11-05T10:03:02.506Z,63.80
2018-11-05T10:05:31.647Z,69.47
2018-11-05T10:08:00.715Z,64.33
2018-11-05T10:10:30.114Z,60.20
2018-11-05T10:12:59.046Z,67.60
2018-11-05T10:15:28.044Z,59.97
2018-11-05T10:17:57.038Z,68.70
2018-11-05T10:20:26.276Z,66.77
2018-11-05T10:22:55.512Z,56.17
2018-11-05T10:25:24.544Z,64.80
2018-11-05T10:27:53.650Z,57.83
2018-11-05T10:30:26.233Z,59.70
2018-11-05T10:32:55.806Z,60.57
2018-11-05T10:35:57.624Z,54.13
2018-11-05T10:38:27.526Z,54.00
2018-11-05T10:40:56.503Z,55.40
2018-11-05T10:43:25.806Z,57.30
2018-11-05T10:45:54.787Z,53.90
2018-11-05T10:48:23.829Z,51.80
2018-11-05T10:50:52.880Z,54.23
2018-11-05T10:53:22.611Z,54.87
2018-11-05T10:55:52.613Z,56.33
2018-11-05T10:58:22.649Z,52.40
2018-11-05T11:00:59.099Z,53.17
2018-11-05T11:03:34.084Z,57.53
2018-11-05T11:06:04.035Z,52.50
2018-11-05T11:08:33.035Z,50.10
2018-11-05T11:11:02.184Z,55.23
2018-11-05T11:13:31.210Z,46.10
2018-11-05T11:16:00.399Z,48.03
2018-11-05T11:18:29.370Z,51.00
2018-11-05T11:20:58.413Z,50.17
2018-11-05T11:23:27.621Z,45.87
2018-11-05T11:25:56.617Z,53.67
2018-11-05T11:28:25.759Z,51.77
2018-11-05T11:30:54.739Z,51.37
2018-11-05T11:33:23.823Z,48.43
2018-11-05T11:35:52.891Z,55.60
2018-11-05T11:38:21.868Z,52.87
2018-11-05T11:40:50.859Z,50.97
2018-11-05T11:43:19.844Z,49.10
2018-11-05T11:45:48.864Z,48.67
2018-11-05T11:48:18.139Z,44.93
2018-11-05T11:50:47.135Z,49.30
2018-11-05T11:53:16.202Z,47.03
2018-11-05T11:55:45.392Z,48.30
2018-11-05T11:58:14.371Z,53.10
2018-11-05T12:00:43.358Z,46.33
2018-11-05T12:03:12.673Z,46.70
2018-11-05T12:05:41.703Z,48.40
2018-11-05T12:08:10.759Z,44.90
2018-11-05T12:10:40.019Z,50.43
2018-11-05T12:13:09.031Z,44.63
2018-11-05T12:15:38.822Z,50.20
2018-11-05T12:18:07.890Z,54.13
2018-11-05T12:20:36.892Z,50.80
2018-11-05T12:23:05.879Z,49.90
2018-11-05T12:25:35.047Z,54.23
2018-11-05T12:28:04.319Z,51.03
2018-11-05T12:30:33.730Z,58.97
2018-11-05T12:33:02.776Z,56.63
2018-11-05T12:35:31.743Z,56.03
2018-11-05T12:38:00.700Z,51.07
2018-11-05T12:40:29.703Z,48.03
2018-11-05T12:42:58.662Z,48.73
2018-11-05T12:45:27.648Z,47.57
2018-11-05T12:47:56.608Z,50.37
2018-11-05T12:50:25.924Z,48.67
2018-11-05T12:52:55.831Z,51.53
2018-11-05T12:55:24.931Z,44.23
2018-11-05T12:57:53.941Z,51.30
2018-11-05T13:03:00.702Z,48.57
2018-11-05T13:05:30.914Z,53.63
2018-11-05T13:08:00.410Z,49.00
2018-11-05T13:10:29.391Z,48.43
2018-11-05T13:12:58.415Z,52.07
2018-11-05T13:15:27.999Z,52.30
2018-11-05T13:17:56.803Z,48.70
2018-11-05T13:20:25.773Z,50.87
2018-11-05T13:22:54.785Z,47.40
2018-11-05T13:25:23.836Z,46.73
2018-11-05T13:27:52.955Z,53.50
2018-11-05T13:30:21.979Z,46.20
2018-11-05T13:32:50.950Z,46.83
2018-11-05T13:35:21.337Z,49.77
2018-11-05T13:37:51.116Z,50.13
2018-11-05T13:40:20.927Z,51.87
2018-11-05T13:42:50.366Z,50.43
2018-11-05T13:45:20.117Z,48.07
2018-11-05T13:47:49.932Z,54.17
2018-11-05T13:50:18.555Z,52.37
2018-11-05T13:52:47.221Z,53.00
2018-11-05T13:55:17.022Z,53.57
2018-11-05T13:57:47.355Z,50.40
2018-11-05T14:00:19.808Z,50.93
2018-11-05T14:02:49.080Z,51.83
2018-11-05T14:05:18.078Z,50.30
2018-11-05T14:07:47.371Z,57.20
2018-11-05T14:10:21.283Z,56.10
2018-11-05T14:12:50.703Z,49.27
2018-11-05T14:15:20.474Z,51.17
2018-11-05T14:17:50.005Z,53.57
2018-11-05T14:20:20.175Z,50.30
2018-11-05T14:22:49.226Z,53.17
2018-11-05T14:25:19.355Z,53.97
2018-11-05T14:27:49.767Z,47.93
2018-11-05T14:30:18.556Z,53.87
2018-11-05T14:32:48.527Z,51.73
2018-11-05T14:35:17.493Z,52.40
2018-11-05T14:37:46.687Z,55.50
2018-11-05T14:40:16.921Z,54.60
2018-11-05T14:42:46.034Z,53.40
2018-11-05T14:45:16.159Z,53.10
2018-11-05T14:47:45.910Z,57.80
2018-11-05T14:50:17.002Z,54.03
2018-11-05T14:52:45.999Z,49.30
2018-11-05T14:55:16.935Z,53.90
2018-11-05T14:57:46.951Z,47.67
2018-11-05T15:00:18.322Z,53.37
2018-11-05T15:02:48.031Z,52.90
2018-11-05T15:05:17.534Z,55.73
2018-11-05T15:07:47.246Z,49.07
2018-11-05T15:10:17.737Z,47.00
2018-11-05T15:12:46.762Z,48.40
2018-11-05T15:15:16.232Z,52.90
2018-11-05T15:17:45.615Z,49.13
2018-11-05T15:20:16.303Z,46.37
2018-11-05T15:22:44.865Z,48.17
2018-11-05T15:25:14.390Z,49.63
2018-11-05T15:27:43.441Z,56.77
2018-11-05T15:30:16.267Z,57.33
2018-11-05T15:32:45.619Z,54.93
2018-11-05T15:35:14.846Z,53.07
2018-11-05T15:37:44.241Z,52.70
2018-11-05T15:40:14.747Z,48.57
2018-11-05T15:42:43.767Z,51.03
2018-11-05T15:45:14.139Z,56.80
2018-11-05T15:47:43.384Z,62.97
2018-11-05T15:50:13.986Z,51.07
2018-11-05T15:52:43.236Z,45.57
2018-11-05T15:55:12.616Z,47.33
2018-11-05T15:57:41.781Z,44.77
2018-11-05T16:00:17.315Z,53.97
2018-11-05T16:02:49.486Z,45.63
2018-11-05T16:05:20.125Z,46.93
2018-11-05T16:07:49.270Z,45.70
2018-11-05T16:10:18.436Z,40.87
2018-11-05T16:12:47.491Z,42.23
2018-11-05T16:15:16.768Z,44.20
2018-11-05T16:17:45.960Z,40.80
2018-11-05T16:20:16.299Z,48.67
2018-11-05T16:22:45.762Z,36.37
2018-11-05T16:25:14.756Z,38.03
2018-11-05T16:27:44.145Z,44.27
2018-11-05T16:30:15.276Z,37.23
2018-11-05T16:32:44.728Z,37.70
2018-11-05T16:35:13.770Z,40.70
2018-11-05T16:37:42.729Z,39.57
2018-11-05T16:40:14.014Z,41.60
2018-11-05T16:42:43.454Z,39.83
2018-11-05T16:45:12.655Z,47.97
2018-11-05T16:47:42.534Z,42.03
2018-11-05T16:50:16.080Z,40.47
2018-11-05T16:52:45.336Z,41.13
2018-11-05T16:55:14.939Z,43.47
2018-11-05T16:57:44.650Z,46.27
2018-11-05T17:00:14.179Z,42.97
2018-11-05T17:02:43.848Z,45.43
2018-11-05T17:05:12.768Z,44.03
2018-11-05T17:07:41.736Z,44.83
2018-11-05T17:10:13.099Z,49.80
2018-11-05T17:12:42.875Z,47.73
2018-11-05T17:15:13.282Z,40.47
2018-11-05T17:17:42.571Z,43.70
2018-11-05T17:20:13.893Z,43.37
2018-11-05T17:22:43.434Z,47.37
2018-11-05T17:25:13.196Z,42.23
2018-11-05T17:27:42.502Z,47.70
2018-11-05T17:30:16.445Z,41.77
2018-11-05T17:32:45.858Z,49.10
2018-11-05T17:35:15.504Z,41.93
2018-11-05T17:37:45.265Z,43.43
2018-11-05T17:40:15.876Z,45.43
2018-11-05T17:42:44.822Z,39.87
2018-11-05T17:45:15.055Z,43.17
2018-11-05T17:47:44.105Z,44.40
2018-11-05T17:50:15.019Z,40.07
2018-11-05T17:52:44.411Z,47.73
2018-11-05T17:55:14.690Z,43.10
2018-11-05T17:57:44.931Z,44.03
2018-11-05T18:00:21.954Z,41.83
2018-11-05T18:02:50.974Z,40.80
2018-11-05T18:05:20.233Z,45.43
2018-11-05T18:07:49.363Z,41.20
2018-11-05T18:10:18.577Z,47.27
2018-11-05T18:12:47.603Z,47.40
2018-11-05T18:15:16.623Z,44.13
2018-11-05T18:17:46.375Z,44.70
2018-11-05T18:20:16.344Z,40.03
2018-11-05T18:22:45.950Z,43.13
2018-11-05T18:25:16.443Z,42.70
2018-11-05T18:27:45.599Z,39.70
2018-11-05T18:30:15.119Z,40.30
2018-11-05T18:32:44.126Z,43.97
2018-11-05T18:35:14.286Z,44.00
2018-11-05T18:37:45.323Z,38.33
2018-11-05T18:40:15.190Z,36.37
2018-11-05T18:42:44.829Z,41.00
2018-11-05T18:45:13.902Z,46.23
2018-11-05T18:47:43.126Z,39.27
2018-11-05T18:50:13.951Z,37.70
2018-11-05T18:52:43.444Z,37.00
2018-11-05T18:55:13.928Z,37.67
2018-11-05T18:57:42.906Z,40.97
2018-11-05T19:00:19.964Z,36.20
2018-11-05T19:02:49.541Z,35.90
2018-11-05T19:05:19.213Z,38.60
2018-11-05T19:07:48.398Z,37.60
2018-11-05T19:10:17.906Z,41.53
2018-11-05T19:12:47.167Z,36.77
2018-11-05T19:15:16.417Z,37.80
2018-11-05T19:17:46.410Z,40.30
2018-11-05T19:20:15.447Z,40.50
2018-11-05T19:22:45.073Z,39.13
2018-11-05T19:25:14.989Z,43.50
2018-11-05T19:27:44.021Z,36.30
2018-11-05T19:30:17.844Z,42.17
2018-11-05T19:32:47.024Z,39.60
2018-11-05T19:35:16.229Z,36.90
2018-11-05T19:37:45.263Z,37.30
2018-11-05T19:40:15.171Z,41.67
2018-11-05T19:42:45.305Z,43.57
2018-11-05T19:45:16.400Z,37.47
2018-11-05T19:47:45.432Z,42.30
2018-11-05T19:50:21.982Z,40.60
2018-11-05T19:52:52.243Z,40.07
2018-11-05T19:55:21.416Z,34.43
2018-11-05T19:57:51.077Z,39.40
2018-11-05T20:00:27.584Z,36.73
2018-11-05T20:02:57.500Z,39.20
2018-11-05T20:05:26.712Z,35.50
2018-11-05T20:07:56.578Z,32.40
2018-11-05T20:10:25.620Z,36.27
2018-11-05T20:12:54.693Z,37.60
2018-11-05T20:15:25.367Z,33.37
2018-11-05T20:17:55.251Z,36.27
2018-11-05T20:20:25.164Z,36.47
2018-11-05T20:22:54.491Z,32.57
2018-11-05T20:25:23.595Z,31.97
2018-11-05T20:27:52.659Z,33.07
2018-11-05T20:30:22.935Z,29.57
2018-11-05T20:32:53.365Z,29.83
2018-11-05T20:35:22.124Z,27.37
2018-11-05T20:37:51.352Z,28.83
2018-11-05T20:40:21.431Z,34.93
2018-11-05T20:42:51.158Z,30.73
2018-11-05T20:45:20.980Z,28.57
2018-11-05T20:47:49.961Z,28.60
2018-11-05T20:50:19.391Z,32.37
2018-11-05T20:52:48.350Z,30.33
2018-11-05T20:55:18.064Z,28.17
2018-11-05T20:57:47.171Z,30.50
2018-11-05T21:00:17.621Z,29.83
2018-11-05T21:02:46.649Z,29.57
2018-11-05T21:05:15.644Z,25.83
2018-11-05T21:07:44.882Z,30.20
2018-11-05T21:10:14.839Z,26.27
2018-11-05T21:12:44.306Z,25.43
2018-11-05T21:15:22.937Z,26.67
2018-11-05T21:17:53.146Z,26.80
2018-11-05T21:20:22.194Z,22.93
2018-11-05T21:22:51.468Z,27.27
2018-11-05T21:25:20.298Z,24.33
2018-11-05T21:27:49.947Z,26.60
2018-11-05T21:30:20.428Z,25.57
2018-11-05T21:32:49.515Z,24.57
2018-11-05T21:35:19.720Z,23.83
2018-11-05T21:37:48.802Z,23.57
2018-11-05T21:40:18.618Z,24.77
2018-11-05T21:42:47.846Z,24.03
2018-11-05T21:45:17.159Z,24.20
2018-11-05T21:47:47.183Z,26.63
2018-11-05T21:50:17.351Z,26.93
2018-11-05T21:52:46.618Z,26.37
2018-11-05T21:55:15.638Z,24.33
2018-11-05T21:57:45.875Z,24.00
2018-11-05T22:00:19.066Z,27.07
2018-11-05T22:02:53.479Z,22.00
2018-11-05T22:05:22.447Z,23.83
2018-11-05T22:07:51.446Z,23.40
2018-11-05T22:10:20.622Z,22.23
2018-11-05T22:12:49.929Z,23.93
2018-11-05T22:15:19.279Z,23.47
2018-11-05T22:17:48.254Z,23.70
2018-11-05T22:20:17.258Z,22.40
2018-11-05T22:22:46.543Z,21.77
2018-11-05T22:25:15.507Z,19.77
2018-11-05T22:27:44.497Z,22.47
2018-11-05T22:30:13.699Z,23.90
2018-11-05T22:32:42.684Z,28.90
2018-11-05T22:35:11.664Z,24.23
2018-11-05T22:37:41.100Z,22.53
2018-11-05T22:40:12.673Z,22.80
2018-11-05T22:42:41.831Z,21.37
2018-11-05T22:45:12.255Z,21.77
2018-11-05T22:47:41.931Z,20.80
2018-11-05T22:50:11.159Z,18.07
2018-11-05T22:52:40.827Z,23.93
2018-11-05T22:55:10.123Z,21.57
2018-11-05T22:57:39.634Z,20.13
2018-11-05T23:00:16.749Z,22.73
2018-11-05T23:02:51.276Z,19.47
2018-11-05T23:05:20.720Z,19.43
2018-11-05T23:07:50.456Z,19.40
2018-11-05T23:10:19.424Z,20.43
2018-11-05T23:12:48.610Z,17.20
2018-11-05T23:15:18.014Z,18.90
2018-11-05T23:17:47.668Z,16.30
2018-11-05T23:20:16.792Z,21.67
2018-11-05T23:22:45.806Z,21.00
2018-11-05T23:25:15.161Z,20.20
2018-11-05T23:27:44.130Z,18.70
2018-11-05T23:30:13.730Z,17.53
2018-11-05T23:32:42.714Z,19.63
2018-11-05T23:35:12.331Z,20.90
2018-11-05T23:37:41.869Z,20.73
2018-11-05T23:40:10.914Z,17.07
2018-11-05T23:42:40.461Z,16.43
2018-11-05T23:45:12.390Z,17.47
2018-11-05T23:47:41.393Z,18.73
2018-11-05T23:50:11.013Z,20.67
2018-11-05T23:52:40.250Z,24.53
2018-11-05T23:55:10.275Z,20.00
2018-11-05T23:57:39.291Z,23.67
